sensor_id;sensor_type;location;lat;lon;timestamp;P1;durP1;ratioP1;P2;durP2;ratioP2
56581;SDS011;42463;52.214;21.238;2024-01-16T07:48:36;9.90;;;2.50;;
56581;SDS011;42463;52.214;21.238;2024-01-16T07:51:09;7.40;;;2.40;;
56581;SDS011;42463;52.214;21.238;2024-01-16T07:53:42;7.80;;;2.20;;
56581;SDS011;42463;52.214;21.238;2024-01-16T07:56:14;8.10;;;2.40;;
56581;SDS011;42463;52.214;21.238;2024-01-16T07:58:47;9.10;;;2.30;;
56581;SDS011;42463;52.214;21.238;2024-01-16T08:01:20;9.60;;;2.80;;
56581;SDS011;42463;52.214;21.238;2024-01-16T08:03:53;11.20;;;2.50;;
56581;SDS011;42463;52.214;21.238;2024-01-16T08:06:25;9.00;;;2.40;;
56581;SDS011;42463;52.214;21.238;2024-01-16T08:08:58;11.70;;;2.50;;
56581;SDS011;42463;52.214;21.238;2024-01-16T08:11:30;7.30;;;2.20;;
56581;SDS011;42463;52.214;21.238;2024-01-16T08:14:05;8.20;;;2.30;;
56581;SDS011;42463;52.214;21.238;2024-01-16T08:16:37;8.60;;;1.90;;
56581;SDS011;42463;52.214;21.238;2024-01-16T08:19:10;8.20;;;2.30;;
56581;SDS011;42463;52.214;21.238;2024-01-16T08:21:42;5.70;;;2.00;;
56581;SDS011;42463;52.214;21.238;2024-01-16T08:24:15;6.80;;;2.00;;
56581;SDS011;42463;52.214;21.238;2024-01-16T08:26:54;9.60;;;2.20;;
56581;SDS011;42463;52.214;21.238;2024-01-16T08:29:27;8.00;;;2.10;;
56581;SDS011;42463;52.214;21.238;2024-01-16T08:31:59;8.50;;;2.40;;
56581;SDS011;42463;52.214;21.238;2024-01-16T08:37:05;8.00;;;1.90;;
56581;SDS011;42463;52.214;21.238;2024-01-16T08:39:37;8.50;;;2.20;;
56581;SDS011;42463;52.214;21.238;2024-01-16T08:42:09;6.70;;;2.00;;
56581;SDS011;42463;52.214;21.238;2024-01-16T08:44:42;6.40;;;1.80;;
56581;SDS011;42463;52.214;21.238;2024-01-16T08:47:14;7.40;;;2.40;;
56581;SDS011;42463;52.214;21.238;2024-01-16T08:49:46;4.20;;;1.90;;
56581;SDS011;42463;52.214;21.238;2024-01-16T08:52:19;8.50;;;1.90;;
56581;SDS011;42463;52.214;21.238;2024-01-16T08:54:52;4.40;;;1.60;;
56581;SDS011;42463;52.214;21.238;2024-01-16T08:57:25;5.80;;;2.00;;
56581;SDS011;42463;52.214;21.238;2024-01-16T08:59:57;9.50;;;2.40;;
56581;SDS011;42463;52.214;21.238;2024-01-16T09:02:30;6.50;;;1.80;;
56581;SDS011;42463;52.214;21.238;2024-01-16T09:05:02;7.80;;;1.80;;
56581;SDS011;42463;52.214;21.238;2024-01-16T09:07:35;7.00;;;1.80;;
56581;SDS011;42463;52.214;21.238;2024-01-16T09:10:09;4.20;;;2.30;;
56581;SDS011;42463;52.214;21.238;2024-01-16T09:12:41;5.40;;;1.80;;
56581;SDS011;42463;52.214;21.238;2024-01-16T09:15:14;6.70;;;2.00;;
56581;SDS011;42463;52.214;21.238;2024-01-16T09:17:46;5.00;;;1.60;;
56581;SDS011;42463;52.214;21.238;2024-01-16T09:20:19;3.10;;;1.60;;
56581;SDS011;42463;52.214;21.238;2024-01-16T09:22:51;6.20;;;1.60;;
56581;SDS011;42463;52.214;21.238;2024-01-16T09:25:24;4.90;;;1.40;;
56581;SDS011;42463;52.214;21.238;2024-01-16T09:27:58;5.50;;;2.00;;
56581;SDS011;42463;52.214;21.238;2024-01-16T09:30:31;4.00;;;1.40;;
56581;SDS011;42463;52.214;21.238;2024-01-16T09:33:03;4.80;;;1.40;;
56581;SDS011;42463;52.214;21.238;2024-01-16T09:35:39;6.40;;;2.00;;
56581;SDS011;42463;52.214;21.238;2024-01-16T09:38:12;5.30;;;1.60;;
56581;SDS011;42463;52.214;21.238;2024-01-16T09:40:44;4.60;;;1.40;;
56581;SDS011;42463;52.214;21.238;2024-01-16T09:43:17;3.90;;;1.30;;
56581;SDS011;42463;52.214;21.238;2024-01-16T09:45:50;4.80;;;1.50;;
56581;SDS011;42463;52.214;21.238;2024-01-16T09:48:25;4.80;;;1.50;;
56581;SDS011;42463;52.214;21.238;2024-01-16T09:50:58;6.20;;;1.50;;
56581;SDS011;42463;52.214;21.238;2024-01-16T09:53:31;4.00;;;1.40;;
56581;SDS011;42463;52.214;21.238;2024-01-16T09:56:04;3.90;;;1.10;;
56581;SDS011;42463;52.214;21.238;2024-01-16T09:58:45;5.80;;;1.30;;
56581;SDS011;42463;52.214;21.238;2024-01-16T10:01:23;4.80;;;1.60;;
56581;SDS011;42463;52.214;21.238;2024-01-16T10:03:58;4.60;;;1.20;;
56581;SDS011;42463;52.214;21.238;2024-01-16T10:06:31;1.70;;;0.90;;
56581;SDS011;42463;52.214;21.238;2024-01-16T10:09:06;2.30;;;1.20;;
56581;SDS011;42463;52.214;21.238;2024-01-16T10:11:41;3.00;;;1.10;;
56581;SDS011;42463;52.214;21.238;2024-01-16T10:14:14;2.50;;;1.10;;
56581;SDS011;42463;52.214;21.238;2024-01-16T10:17:01;2.90;;;1.10;;
56581;SDS011;42463;52.214;21.238;2024-01-16T10:19:34;3.50;;;1.20;;
56581;SDS011;42463;52.214;21.238;2024-01-16T10:22:22;1.60;;;0.80;;
56581;SDS011;42463;52.214;21.238;2024-01-16T10:25:08;6.20;;;1.30;;
56581;SDS011;42463;52.214;21.238;2024-01-16T10:27:46;2.10;;;1.00;;
56581;SDS011;42463;52.214;21.238;2024-01-16T10:30:22;2.70;;;1.20;;
56581;SDS011;42463;52.214;21.238;2024-01-16T10:33:01;3.00;;;1.10;;
56581;SDS011;42463;52.214;21.238;2024-01-16T10:35:45;1.20;;;0.80;;
56581;SDS011;42463;52.214;21.238;2024-01-16T10:38:22;1.90;;;1.00;;
56581;SDS011;42463;52.214;21.238;2024-01-16T10:41:10;3.90;;;0.90;;
56581;SDS011;42463;52.214;21.238;2024-01-16T10:43:43;2.60;;;0.80;;
56581;SDS011;42463;52.214;21.238;2024-01-16T10:46:16;2.30;;;0.80;;
56581;SDS011;42463;52.214;21.238;2024-01-16T10:49:01;2.40;;;0.90;;
56581;SDS011;42463;52.214;21.238;2024-01-16T10:51:34;2.20;;;1.20;;
56581;SDS011;42463;52.214;21.238;2024-01-16T10:54:10;4.50;;;0.70;;
56581;SDS011;42463;52.214;21.238;2024-01-16T10:56:46;1.70;;;0.90;;
56581;SDS011;42463;52.214;21.238;2024-01-16T10:59:24;2.70;;;0.80;;
56581;SDS011;42463;52.214;21.238;2024-01-16T11:02:05;2.50;;;1.20;;
56581;SDS011;42463;52.214;21.238;2024-01-16T11:04:45;1.40;;;0.80;;
56581;SDS011;42463;52.214;21.238;2024-01-16T11:07:19;2.20;;;0.70;;
56581;SDS011;42463;52.214;21.238;2024-01-16T11:09:54;3.20;;;0.90;;
56581;SDS011;42463;52.214;21.238;2024-01-16T11:12:27;1.70;;;0.80;;
56581;SDS011;42463;52.214;21.238;2024-01-16T11:15:01;1.40;;;0.70;;
56581;SDS011;42463;52.214;21.238;2024-01-16T11:17:37;1.80;;;0.80;;
56581;SDS011;42463;52.214;21.238;2024-01-16T11:20:12;2.10;;;0.90;;
56581;SDS011;42463;52.214;21.238;2024-01-16T11:22:45;1.60;;;0.80;;
56581;SDS011;42463;52.214;21.238;2024-01-16T11:25:19;1.60;;;0.60;;
56581;SDS011;42463;52.214;21.238;2024-01-16T11:28:09;3.90;;;0.80;;
56581;SDS011;42463;52.214;21.238;2024-01-16T11:30:42;2.30;;;0.80;;
56581;SDS011;42463;52.214;21.238;2024-01-16T11:33:44;1.10;;;0.60;;
56581;SDS011;42463;52.214;21.238;2024-01-16T11:39:33;2.60;;;0.80;;
56581;SDS011;42463;52.214;21.238;2024-01-16T11:42:06;1.20;;;0.50;;
56581;SDS011;42463;52.214;21.238;2024-01-16T11:47:17;1.60;;;0.70;;
56581;SDS011;42463;52.214;21.238;2024-01-16T11:49:51;1.90;;;0.60;;
56581;SDS011;42463;52.214;21.238;2024-01-16T11:52:44;1.10;;;0.60;;
56581;SDS011;42463;52.214;21.238;2024-01-16T11:55:30;2.80;;;0.80;;
56581;SDS011;42463;52.214;21.238;2024-01-16T11:58:25;1.00;;;0.50;;
56581;SDS011;42463;52.214;21.238;2024-01-16T12:01:09;1.50;;;0.60;;
56581;SDS011;42463;52.214;21.238;2024-01-16T12:03:43;1.60;;;0.60;;
56581;SDS011;42463;52.214;21.238;2024-01-16T12:06:17;1.60;;;0.60;;
56581;SDS011;42463;52.214;21.238;2024-01-16T12:11:21;1.50;;;0.70;;
56581;SDS011;42463;52.214;21.238;2024-01-16T12:14:03;1.80;;;0.70;;
56581;SDS011;42463;52.214;21.238;2024-01-16T12:16:35;1.40;;;0.60;;
56581;SDS011;42463;52.214;21.238;2024-01-16T12:19:08;1.10;;;0.60;;
56581;SDS011;42463;52.214;21.238;2024-01-16T12:21:41;0.80;;;0.50;;
56581;SDS011;42463;52.214;21.238;2024-01-16T12:24:17;1.20;;;0.60;;
56581;SDS011;42463;52.214;21.238;2024-01-16T12:26:49;1.80;;;0.60;;
56581;SDS011;42463;52.214;21.238;2024-01-16T12:29:22;1.60;;;0.50;;
56581;SDS011;42463;52.214;21.238;2024-01-16T12:32:08;1.40;;;0.60;;
56581;SDS011;42463;52.214;21.238;2024-01-16T12:34:47;1.80;;;0.60;;
56581;SDS011;42463;52.214;21.238;2024-01-16T12:37:20;1.30;;;0.70;;
56581;SDS011;42463;52.214;21.238;2024-01-16T12:39:52;1.10;;;0.60;;
56581;SDS011;42463;52.214;21.238;2024-01-16T12:42:27;1.40;;;0.80;;
56581;SDS011;42463;52.214;21.238;2024-01-16T12:45:00;2.40;;;0.50;;
56581;SDS011;42463;52.214;21.238;2024-01-16T12:47:38;5.20;;;0.80;;
56581;SDS011;42463;52.214;21.238;2024-01-16T12:50:11;2.50;;;0.60;;
56581;SDS011;42463;52.214;21.238;2024-01-16T12:52:53;3.00;;;0.80;;
56581;SDS011;42463;52.214;21.238;2024-01-16T12:55:34;3.80;;;0.60;;
56581;SDS011;42463;52.214;21.238;2024-01-16T12:58:16;3.50;;;0.60;;
56581;SDS011;42463;52.214;21.238;2024-01-16T13:00:50;1.40;;;0.60;;
56581;SDS011;42463;52.214;21.238;2024-01-16T13:03:25;1.40;;;0.70;;
56581;SDS011;42463;52.214;21.238;2024-01-16T13:06:00;1.30;;;0.50;;
56581;SDS011;42463;52.214;21.238;2024-01-16T13:08:34;1.40;;;0.60;;
56581;SDS011;42463;52.214;21.238;2024-01-16T13:11:07;2.30;;;0.60;;
56581;SDS011;42463;52.214;21.238;2024-01-16T13:13:40;1.60;;;0.70;;
56581;SDS011;42463;52.214;21.238;2024-01-16T13:16:12;0.70;;;0.60;;
56581;SDS011;42463;52.214;21.238;2024-01-16T13:18:46;0.90;;;0.50;;
56581;SDS011;42463;52.214;21.238;2024-01-16T13:21:30;2.10;;;0.60;;
56581;SDS011;42463;52.214;21.238;2024-01-16T13:24:03;2.90;;;0.60;;
56581;SDS011;42463;52.214;21.238;2024-01-16T13:26:37;1.10;;;0.40;;
56581;SDS011;42463;52.214;21.238;2024-01-16T13:29:10;1.50;;;0.60;;
56581;SDS011;42463;52.214;21.238;2024-01-16T13:34:15;12.10;;;1.10;;
56581;SDS011;42463;52.214;21.238;2024-01-16T13:36:50;3.10;;;0.80;;
56581;SDS011;42463;52.214;21.238;2024-01-16T13:39:25;2.10;;;0.60;;
56581;SDS011;42463;52.214;21.238;2024-01-16T13:41:58;1.30;;;0.50;;
56581;SDS011;42463;52.214;21.238;2024-01-16T13:44:30;0.90;;;0.60;;
56581;SDS011;42463;52.214;21.238;2024-01-16T13:47:02;1.70;;;0.50;;
56581;SDS011;42463;52.214;21.238;2024-01-16T13:49:35;0.70;;;0.50;;
56581;SDS011;42463;52.214;21.238;2024-01-16T13:52:09;1.60;;;0.60;;
56581;SDS011;42463;52.214;21.238;2024-01-16T13:54:42;1.00;;;0.60;;
56581;SDS011;42463;52.214;21.238;2024-01-16T13:57:14;2.30;;;0.60;;
56581;SDS011;42463;52.214;21.238;2024-01-16T13:59:46;3.30;;;0.50;;
56581;SDS011;42463;52.214;21.238;2024-01-16T14:02:20;1.90;;;0.80;;
56581;SDS011;42463;52.214;21.238;2024-01-16T14:04:52;1.50;;;0.70;;
56581;SDS011;42463;52.214;21.238;2024-01-16T14:07:25;0.90;;;0.50;;
56581;SDS011;42463;52.214;21.238;2024-01-16T14:09:58;0.60;;;0.50;;
56581;SDS011;42463;52.214;21.238;2024-01-16T14:12:30;1.10;;;0.70;;
56581;SDS011;42463;52.214;21.238;2024-01-16T14:15:02;0.80;;;0.50;;
56581;SDS011;42463;52.214;21.238;2024-01-16T14:17:46;1.00;;;0.50;;
56581;SDS011;42463;52.214;21.238;2024-01-16T14:20:20;1.10;;;0.60;;
56581;SDS011;42463;52.214;21.238;2024-01-16T14:22:55;1.30;;;0.50;;
56581;SDS011;42463;52.214;21.238;2024-01-16T14:25:28;1.10;;;0.60;;
56581;SDS011;42463;52.214;21.238;2024-01-16T14:28:02;1.90;;;0.70;;
56581;SDS011;42463;52.214;21.238;2024-01-16T14:30:36;1.90;;;0.70;;
56581;SDS011;42463;52.214;21.238;2024-01-16T14:33:08;2.10;;;0.70;;
56581;SDS011;42463;52.214;21.238;2024-01-16T14:35:42;0.70;;;0.50;;
56581;SDS011;42463;52.214;21.238;2024-01-16T14:38:14;2.20;;;0.60;;
56581;SDS011;42463;52.214;21.238;2024-01-16T14:40:46;1.90;;;0.80;;
56581;SDS011;42463;52.214;21.238;2024-01-16T14:43:21;1.40;;;0.70;;
56581;SDS011;42463;52.214;21.238;2024-01-16T14:45:53;2.80;;;0.80;;
56581;SDS011;42463;52.214;21.238;2024-01-16T14:48:28;0.50;;;0.40;;
56581;SDS011;42463;52.214;21.238;2024-01-16T14:51:00;0.90;;;0.60;;
56581;SDS011;42463;52.214;21.238;2024-01-16T14:53:34;2.30;;;0.60;;
56581;SDS011;42463;52.214;21.238;2024-01-16T14:56:06;1.70;;;0.80;;
56581;SDS011;42463;52.214;21.238;2024-01-16T14:58:39;1.10;;;0.60;;
56581;SDS011;42463;52.214;21.238;2024-01-16T15:01:13;1.30;;;0.70;;
56581;SDS011;42463;52.214;21.238;2024-01-16T15:03:48;1.50;;;0.80;;
56581;SDS011;42463;52.214;21.238;2024-01-16T15:06:20;1.00;;;0.60;;
56581;SDS011;42463;52.214;21.238;2024-01-16T15:08:55;1.90;;;0.80;;
56581;SDS011;42463;52.214;21.238;2024-01-16T15:11:28;0.90;;;0.60;;
56581;SDS011;42463;52.214;21.238;2024-01-16T15:14:01;1.10;;;0.70;;
56581;SDS011;42463;52.214;21.238;2024-01-16T15:16:33;3.20;;;0.70;;
56581;SDS011;42463;52.214;21.238;2024-01-16T15:19:07;1.70;;;0.60;;
56581;SDS011;42463;52.214;21.238;2024-01-16T15:21:39;1.00;;;0.60;;
56581;SDS011;42463;52.214;21.238;2024-01-16T15:24:13;1.00;;;0.50;;
56581;SDS011;42463;52.214;21.238;2024-01-16T15:26:49;1.30;;;0.80;;
56581;SDS011;42463;52.214;21.238;2024-01-16T15:29:22;1.30;;;0.80;;
56581;SDS011;42463;52.214;21.238;2024-01-16T15:31:56;2.30;;;0.70;;
56581;SDS011;42463;52.214;21.238;2024-01-16T15:34:29;1.70;;;0.70;;
56581;SDS011;42463;52.214;21.238;2024-01-16T15:37:02;2.80;;;0.80;;
56581;SDS011;42463;52.214;21.238;2024-01-16T15:39:34;1.00;;;0.60;;
56581;SDS011;42463;52.214;21.238;2024-01-16T15:42:08;1.50;;;0.60;;
56581;SDS011;42463;52.214;21.238;2024-01-16T15:44:41;1.20;;;0.60;;
56581;SDS011;42463;52.214;21.238;2024-01-16T15:47:14;1.90;;;0.80;;
56581;SDS011;42463;52.214;21.238;2024-01-16T15:49:47;1.20;;;0.90;;
56581;SDS011;42463;52.214;21.238;2024-01-16T15:52:25;1.50;;;0.70;;
56581;SDS011;42463;52.214;21.238;2024-01-16T15:54:58;2.30;;;0.70;;
56581;SDS011;42463;52.214;21.238;2024-01-16T15:57:31;0.80;;;0.60;;
56581;SDS011;42463;52.214;21.238;2024-01-16T16:00:05;1.20;;;0.80;;
56581;SDS011;42463;52.214;21.238;2024-01-16T16:02:40;0.90;;;0.60;;
56581;SDS011;42463;52.214;21.238;2024-01-16T16:05:16;2.30;;;1.00;;
56581;SDS011;42463;52.214;21.238;2024-01-16T16:07:50;2.60;;;0.90;;
56581;SDS011;42463;52.214;21.238;2024-01-16T16:10:23;1.30;;;0.80;;
56581;SDS011;42463;52.214;21.238;2024-01-16T16:12:56;3.60;;;1.50;;
56581;SDS011;42463;52.214;21.238;2024-01-16T16:15:29;4.70;;;1.60;;
56581;SDS011;42463;52.214;21.238;2024-01-16T16:18:02;2.80;;;1.70;;
56581;SDS011;42463;52.214;21.238;2024-01-16T16:20:37;3.20;;;1.90;;
56581;SDS011;42463;52.214;21.238;2024-01-16T16:23:10;4.40;;;2.10;;
56581;SDS011;42463;52.214;21.238;2024-01-16T16:25:45;5.30;;;4.30;;
56581;SDS011;42463;52.214;21.238;2024-01-16T16:28:18;4.30;;;3.90;;
56581;SDS011;42463;52.214;21.238;2024-01-16T16:30:51;4.10;;;3.60;;
56581;SDS011;42463;52.214;21.238;2024-01-16T16:33:24;5.00;;;4.30;;
56581;SDS011;42463;52.214;21.238;2024-01-16T16:35:57;5.90;;;4.50;;
56581;SDS011;42463;52.214;21.238;2024-01-16T16:38:30;5.90;;;5.20;;
56581;SDS011;42463;52.214;21.238;2024-01-16T16:41:03;6.30;;;5.30;;
56581;SDS011;42463;52.214;21.238;2024-01-16T16:43:37;5.20;;;4.70;;
56581;SDS011;42463;52.214;21.238;2024-01-16T16:46:09;6.40;;;5.00;;
56581;SDS011;42463;52.214;21.238;2024-01-16T16:48:43;6.00;;;5.40;;
56581;SDS011;42463;52.214;21.238;2024-01-16T16:51:18;7.00;;;6.40;;
56581;SDS011;42463;52.214;21.238;2024-01-16T16:53:52;6.80;;;6.00;;
56581;SDS011;42463;52.214;21.238;2024-01-16T16:56:24;6.90;;;6.30;;
56581;SDS011;42463;52.214;21.238;2024-01-16T16:58:57;7.40;;;6.70;;
56581;SDS011;42463;52.214;21.238;2024-01-16T17:01:30;7.50;;;6.70;;
56581;SDS011;42463;52.214;21.238;2024-01-16T17:04:05;8.30;;;7.50;;
56581;SDS011;42463;52.214;21.238;2024-01-16T17:06:38;7.30;;;6.60;;
56581;SDS011;42463;52.214;21.238;2024-01-16T17:09:11;6.50;;;6.00;;
56581;SDS011;42463;52.214;21.238;2024-01-16T17:11:49;7.20;;;6.50;;
56581;SDS011;42463;52.214;21.238;2024-01-16T17:14:21;7.50;;;6.80;;
56581;SDS011;42463;52.214;21.238;2024-01-16T17:16:54;7.50;;;6.50;;
56581;SDS011;42463;52.214;21.238;2024-01-16T17:19:26;6.90;;;6.10;;
56581;SDS011;42463;52.214;21.238;2024-01-16T17:21:59;6.70;;;6.20;;
56581;SDS011;42463;52.214;21.238;2024-01-16T17:24:34;6.80;;;6.00;;
56581;SDS011;42463;52.214;21.238;2024-01-16T17:27:08;6.20;;;5.70;;
56581;SDS011;42463;52.214;21.238;2024-01-16T17:29:41;6.30;;;5.70;;
56581;SDS011;42463;52.214;21.238;2024-01-16T17:32:14;6.40;;;5.80;;
56581;SDS011;42463;52.214;21.238;2024-01-16T17:34:48;6.70;;;5.90;;
56581;SDS011;42463;52.214;21.238;2024-01-16T17:37:20;5.90;;;5.30;;
56581;SDS011;42463;52.214;21.238;2024-01-16T17:39:53;8.20;;;5.70;;
56581;SDS011;42463;52.214;21.238;2024-01-16T17:42:26;6.30;;;5.50;;
56581;SDS011;42463;52.214;21.238;2024-01-16T17:44:58;6.20;;;5.60;;
56581;SDS011;42463;52.214;21.238;2024-01-16T17:47:32;6.10;;;5.20;;
56581;SDS011;42463;52.214;21.238;2024-01-16T17:50:05;6.60;;;5.10;;
56581;SDS011;42463;52.214;21.238;2024-01-16T17:52:41;6.90;;;5.00;;
56581;SDS011;42463;52.214;21.238;2024-01-16T17:55:14;9.10;;;4.70;;
56581;SDS011;42463;52.214;21.238;2024-01-16T17:57:48;5.40;;;4.60;;
56581;SDS011;42463;52.214;21.238;2024-01-16T18:00:21;5.80;;;4.90;;
56581;SDS011;42463;52.214;21.238;2024-01-16T18:02:56;7.80;;;5.00;;
56581;SDS011;42463;52.214;21.238;2024-01-16T18:05:29;7.20;;;4.90;;
56581;SDS011;42463;52.214;21.238;2024-01-16T18:08:03;5.50;;;4.40;;
56581;SDS011;42463;52.214;21.238;2024-01-16T18:10:37;8.90;;;4.40;;
56581;SDS011;42463;52.214;21.238;2024-01-16T18:13:11;6.90;;;4.70;;
56581;SDS011;42463;52.214;21.238;2024-01-16T18:15:44;9.70;;;4.70;;
56581;SDS011;42463;52.214;21.238;2024-01-16T18:18:16;12.60;;;4.60;;
56581;SDS011;42463;52.214;21.238;2024-01-16T18:20:51;7.80;;;4.10;;
56581;SDS011;42463;52.214;21.238;2024-01-16T18:23:25;7.40;;;4.30;;
56581;SDS011;42463;52.214;21.238;2024-01-16T18:25:58;6.70;;;4.20;;
56581;SDS011;42463;52.214;21.238;2024-01-16T18:28:30;7.70;;;3.70;;
56581;SDS011;42463;52.214;21.238;2024-01-16T18:31:03;6.60;;;4.00;;
56581;SDS011;42463;52.214;21.238;2024-01-16T18:33:35;8.00;;;4.60;;
56581;SDS011;42463;52.214;21.238;2024-01-16T18:36:09;6.40;;;3.90;;
56581;SDS011;42463;52.214;21.238;2024-01-16T18:38:43;7.20;;;3.70;;
56581;SDS011;42463;52.214;21.238;2024-01-16T18:41:16;4.80;;;3.40;;
56581;SDS011;42463;52.214;21.238;2024-01-16T18:43:49;6.60;;;3.80;;
56581;SDS011;42463;52.214;21.238;2024-01-16T18:46:22;5.50;;;3.30;;
56581;SDS011;42463;52.214;21.238;2024-01-16T18:48:55;5.50;;;3.40;;
56581;SDS011;42463;52.214;21.238;2024-01-16T18:51:28;8.20;;;4.20;;
56581;SDS011;42463;52.214;21.238;2024-01-16T18:54:01;5.30;;;3.50;;
56581;SDS011;42463;52.214;21.238;2024-01-16T18:56:33;4.50;;;3.50;;
56581;SDS011;42463;52.214;21.238;2024-01-16T18:59:08;4.60;;;3.30;;
56581;SDS011;42463;52.214;21.238;2024-01-16T19:01:41;8.20;;;3.90;;
56581;SDS011;42463;52.214;21.238;2024-01-16T19:04:14;7.40;;;3.60;;
56581;SDS011;42463;52.214;21.238;2024-01-16T19:06:50;7.00;;;3.40;;
56581;SDS011;42463;52.214;21.238;2024-01-16T19:09:22;7.30;;;3.80;;
56581;SDS011;42463;52.214;21.238;2024-01-16T19:12:01;4.90;;;3.50;;
56581;SDS011;42463;52.214;21.238;2024-01-16T19:14:35;4.40;;;3.50;;
56581;SDS011;42463;52.214;21.238;2024-01-16T19:17:08;5.00;;;3.30;;
56581;SDS011;42463;52.214;21.238;2024-01-16T19:19:41;5.30;;;3.40;;
56581;SDS011;42463;52.214;21.238;2024-01-16T19:22:14;7.30;;;3.50;;
56581;SDS011;42463;52.214;21.238;2024-01-16T19:24:46;7.50;;;3.80;;
56581;SDS011;42463;52.214;21.238;2024-01-16T19:27:19;5.10;;;3.50;;
56581;SDS011;42463;52.214;21.238;2024-01-16T19:29:54;5.40;;;3.30;;
56581;SDS011;42463;52.214;21.238;2024-01-16T19:32:30;5.50;;;3.20;;
56581;SDS011;42463;52.214;21.238;2024-01-16T19:35:02;4.90;;;3.20;;
56581;SDS011;42463;52.214;21.238;2024-01-16T19:37:37;4.80;;;3.80;;
56581;SDS011;42463;52.214;21.238;2024-01-16T19:40:11;6.40;;;3.60;;
56581;SDS011;42463;52.214;21.238;2024-01-16T19:42:45;5.30;;;3.20;;
56581;SDS011;42463;52.214;21.238;2024-01-16T19:45:19;6.00;;;3.40;;
56581;SDS011;42463;52.214;21.238;2024-01-16T19:47:52;5.50;;;3.50;;
56581;SDS011;42463;52.214;21.238;2024-01-16T19:50:25;6.70;;;3.60;;
56581;SDS011;42463;52.214;21.238;2024-01-16T19:52:58;4.60;;;3.60;;
56581;SDS011;42463;52.214;21.238;2024-01-16T19:55:32;4.50;;;3.20;;
56581;SDS011;42463;52.214;21.238;2024-01-16T19:58:05;5.20;;;3.50;;
56581;SDS011;42463;52.214;21.238;2024-01-16T20:00:40;7.20;;;3.30;;
56581;SDS011;42463;52.214;21.238;2024-01-16T20:03:14;5.50;;;3.50;;
56581;SDS011;42463;52.214;21.238;2024-01-16T20:05:47;5.90;;;3.50;;
56581;SDS011;42463;52.214;21.238;2024-01-16T20:08:20;10.30;;;3.70;;
56581;SDS011;42463;52.214;21.238;2024-01-16T20:10:55;6.90;;;3.60;;
56581;SDS011;42463;52.214;21.238;2024-01-16T20:13:29;19.60;;;3.90;;
56581;SDS011;42463;52.214;21.238;2024-01-16T20:16:02;7.10;;;3.60;;
56581;SDS011;42463;52.214;21.238;2024-01-16T20:18:36;16.30;;;4.00;;
56581;SDS011;42463;52.214;21.238;2024-01-16T20:21:13;6.10;;;3.50;;
56581;SDS011;42463;52.214;21.238;2024-01-16T20:23:45;6.50;;;3.80;;
56581;SDS011;42463;52.214;21.238;2024-01-16T20:26:19;12.90;;;4.00;;
56581;SDS011;42463;52.214;21.238;2024-01-16T20:28:52;6.50;;;3.80;;
56581;SDS011;42463;52.214;21.238;2024-01-16T20:31:24;6.70;;;3.80;;
56581;SDS011;42463;52.214;21.238;2024-01-16T20:33:57;8.10;;;3.40;;
56581;SDS011;42463;52.214;21.238;2024-01-16T20:36:30;5.00;;;3.20;;
56581;SDS011;42463;52.214;21.238;2024-01-16T20:39:02;5.90;;;3.50;;
56581;SDS011;42463;52.214;21.238;2024-01-16T20:41:35;6.70;;;3.90;;
56581;SDS011;42463;52.214;21.238;2024-01-16T20:44:08;5.40;;;3.60;;
56581;SDS011;42463;52.214;21.238;2024-01-16T20:46:45;13.60;;;3.70;;
56581;SDS011;42463;52.214;21.238;2024-01-16T20:49:20;5.10;;;3.60;;
56581;SDS011;42463;52.214;21.238;2024-01-16T20:51:53;5.60;;;3.30;;
56581;SDS011;42463;52.214;21.238;2024-01-16T20:54:27;4.60;;;3.40;;
56581;SDS011;42463;52.214;21.238;2024-01-16T20:56:59;4.30;;;3.50;;
56581;SDS011;42463;52.214;21.238;2024-01-16T20:59:32;4.80;;;3.30;;
56581;SDS011;42463;52.214;21.238;2024-01-16T21:02:04;4.80;;;3.70;;
56581;SDS011;42463;52.214;21.238;2024-01-16T21:04:37;5.00;;;3.60;;
56581;SDS011;42463;52.214;21.238;2024-01-16T21:07:09;5.50;;;2.90;;
56581;SDS011;42463;52.214;21.238;2024-01-16T21:09:43;4.40;;;3.40;;
56581;SDS011;42463;52.214;21.238;2024-01-16T21:12:15;6.00;;;3.80;;
56581;SDS011;42463;52.214;21.238;2024-01-16T21:14:48;3.70;;;3.20;;
56581;SDS011;42463;52.214;21.238;2024-01-16T21:17:20;4.50;;;3.40;;
56581;SDS011;42463;52.214;21.238;2024-01-16T21:19:53;5.10;;;3.60;;
56581;SDS011;42463;52.214;21.238;2024-01-16T21:22:25;6.80;;;4.10;;
56581;SDS011;42463;52.214;21.238;2024-01-16T21:24:58;10.60;;;3.70;;
56581;SDS011;42463;52.214;21.238;2024-01-16T21:27:30;5.40;;;4.00;;
56581;SDS011;42463;52.214;21.238;2024-01-16T21:30:05;5.90;;;3.30;;
56581;SDS011;42463;52.214;21.238;2024-01-16T21:32:39;5.20;;;3.60;;
56581;SDS011;42463;52.214;21.238;2024-01-16T21:35:13;6.60;;;3.90;;
56581;SDS011;42463;52.214;21.238;2024-01-16T21:37:48;6.70;;;4.00;;
56581;SDS011;42463;52.214;21.238;2024-01-16T21:40:20;6.80;;;4.20;;
56581;SDS011;42463;52.214;21.238;2024-01-16T21:42:53;7.30;;;4.00;;
56581;SDS011;42463;52.214;21.238;2024-01-16T21:45:25;5.80;;;3.90;;
56581;SDS011;42463;52.214;21.238;2024-01-16T21:47:58;5.90;;;3.90;;
56581;SDS011;42463;52.214;21.238;2024-01-16T21:50:30;7.20;;;4.30;;
56581;SDS011;42463;52.214;21.238;2024-01-16T21:53:05;5.40;;;4.00;;
56581;SDS011;42463;52.214;21.238;2024-01-16T21:55:37;6.60;;;4.40;;
56581;SDS011;42463;52.214;21.238;2024-01-16T21:58:10;7.60;;;4.40;;
56581;SDS011;42463;52.214;21.238;2024-01-16T22:00:42;6.90;;;4.50;;
56581;SDS011;42463;52.214;21.238;2024-01-16T22:03:20;7.10;;;4.60;;
56581;SDS011;42463;52.214;21.238;2024-01-16T22:05:53;5.70;;;4.70;;
56581;SDS011;42463;52.214;21.238;2024-01-16T22:08:28;8.80;;;4.90;;
56581;SDS011;42463;52.214;21.238;2024-01-16T22:11:00;7.20;;;4.70;;
56581;SDS011;42463;52.214;21.238;2024-01-16T22:16:05;7.10;;;4.90;;
56581;SDS011;42463;52.214;21.238;2024-01-16T22:18:40;7.20;;;5.00;;
56581;SDS011;42463;52.214;21.238;2024-01-16T22:21:41;5.80;;;4.50;;
56581;SDS011;42463;52.214;21.238;2024-01-16T22:24:13;6.10;;;4.50;;
56581;SDS011;42463;52.214;21.238;2024-01-16T22:26:47;7.10;;;5.00;;
56581;SDS011;42463;52.214;21.238;2024-01-16T22:29:19;7.90;;;5.40;;
56581;SDS011;42463;52.214;21.238;2024-01-16T22:31:51;7.00;;;5.20;;
56581;SDS011;42463;52.214;21.238;2024-01-16T22:34:24;7.70;;;5.30;;
56581;SDS011;42463;52.214;21.238;2024-01-16T22:36:58;9.20;;;5.30;;
56581;SDS011;42463;52.214;21.238;2024-01-16T22:39:34;8.20;;;5.10;;
56581;SDS011;42463;52.214;21.238;2024-01-16T22:42:07;8.60;;;5.40;;
56581;SDS011;42463;52.214;21.238;2024-01-16T22:44:40;7.70;;;5.80;;
56581;SDS011;42463;52.214;21.238;2024-01-16T22:47:12;8.30;;;5.60;;
56581;SDS011;42463;52.214;21.238;2024-01-16T22:49:45;8.10;;;5.40;;
56581;SDS011;42463;52.214;21.238;2024-01-16T22:52:17;8.20;;;5.60;;
56581;SDS011;42463;52.214;21.238;2024-01-16T22:54:50;12.30;;;5.80;;
56581;SDS011;42463;52.214;21.238;2024-01-16T22:57:23;8.30;;;5.70;;
56581;SDS011;42463;52.214;21.238;2024-01-16T22:59:55;9.50;;;6.30;;
56581;SDS011;42463;52.214;21.238;2024-01-16T23:02:50;7.90;;;5.90;;
56581;SDS011;42463;52.214;21.238;2024-01-16T23:05:23;8.80;;;5.90;;
56581;SDS011;42463;52.214;21.238;2024-01-16T23:07:55;9.50;;;5.60;;
56581;SDS011;42463;52.214;21.238;2024-01-16T23:10:29;8.30;;;6.30;;
56581;SDS011;42463;52.214;21.238;2024-01-16T23:13:01;8.40;;;6.10;;
56581;SDS011;42463;52.214;21.238;2024-01-16T23:15:35;7.40;;;5.70;;
56581;SDS011;42463;52.214;21.238;2024-01-16T23:18:07;9.50;;;6.60;;